sensor_id;sensor_type;location;lat;lon;timestamp;temperature;humidity
65034;DHT22;51601;51.356;12.458;2022-09-28T00:03:33;9.10;95.30
65034;DHT22;51601;51.356;12.458;2022-09-28T00:07:47;9.00;95.30
65034;DHT22;51601;51.356;12.458;2022-09-28T00:12:01;9.00;95.30
65034;DHT22;51601;51.356;12.458;2022-09-28T00:16:18;9.00;95.40
65034;DHT22;51601;51.356;12.458;2022-09-28T00:20:32;8.90;95.70
65034;DHT22;51601;51.356;12.458;2022-09-28T00:24:45;8.90;95.50
65034;DHT22;51601;51.356;12.458;2022-09-28T00:29:00;8.90;95.60
65034;DHT22;51601;51.356;12.458;2022-09-28T00:33:16;8.90;95.60
65034;DHT22;51601;51.356;12.458;2022-09-28T00:37:30;8.80;95.60
65034;DHT22;51601;51.356;12.458;2022-09-28T00:41:45;8.80;95.60
65034;DHT22;51601;51.356;12.458;2022-09-28T00:46:01;8.80;95.70
65034;DHT22;51601;51.356;12.458;2022-09-28T00:50:21;8.80;95.80
65034;DHT22;51601;51.356;12.458;2022-09-28T00:54:37;8.80;95.80
65034;DHT22;51601;51.356;12.458;2022-09-28T00:58:52;8.80;95.70
65034;DHT22;51601;51.356;12.458;2022-09-28T01:03:07;8.80;95.60
65034;DHT22;51601;51.356;12.458;2022-09-28T01:07:23;8.80;95.70
65034;DHT22;51601;51.356;12.458;2022-09-28T01:11:38;8.80;95.60
65034;DHT22;51601;51.356;12.458;2022-09-28T01:15:58;8.80;95.60
65034;DHT22;51601;51.356;12.458;2022-09-28T01:20:46;8.80;95.50
65034;DHT22;51601;51.356;12.458;2022-09-28T01:25:09;8.70;95.60
65034;DHT22;51601;51.356;12.458;2022-09-28T01:29:44;8.70;95.50
65034;DHT22;51601;51.356;12.458;2022-09-28T01:34:02;8.70;95.50
65034;DHT22;51601;51.356;12.458;2022-09-28T01:38:19;8.60;95.30
65034;DHT22;51601;51.356;12.458;2022-09-28T01:42:37;8.50;95.40
65034;DHT22;51601;51.356;12.458;2022-09-28T01:46:53;8.50;95.30
65034;DHT22;51601;51.356;12.458;2022-09-28T01:51:17;8.40;95.40
65034;DHT22;51601;51.356;12.458;2022-09-28T01:55:35;8.40;95.50
65034;DHT22;51601;51.356;12.458;2022-09-28T01:59:56;8.30;95.50
65034;DHT22;51601;51.356;12.458;2022-09-28T02:04:17;8.30;95.40
65034;DHT22;51601;51.356;12.458;2022-09-28T02:08:36;8.20;95.50
65034;DHT22;51601;51.356;12.458;2022-09-28T02:12:55;8.20;95.60
65034;DHT22;51601;51.356;12.458;2022-09-28T02:17:11;8.10;95.60
65034;DHT22;51601;51.356;12.458;2022-09-28T02:21:39;8.10;95.70
65034;DHT22;51601;51.356;12.458;2022-09-28T02:26:00;8.10;95.70
65034;DHT22;51601;51.356;12.458;2022-09-28T02:30:14;8.00;95.80
65034;DHT22;51601;51.356;12.458;2022-09-28T02:34:29;7.90;95.70
65034;DHT22;51601;51.356;12.458;2022-09-28T02:38:45;7.90;95.80
65034;DHT22;51601;51.356;12.458;2022-09-28T02:43:03;7.90;95.90
65034;DHT22;51601;51.356;12.458;2022-09-28T02:47:29;7.90;96.00
65034;DHT22;51601;51.356;12.458;2022-09-28T02:52:02;7.80;96.10
65034;DHT22;51601;51.356;12.458;2022-09-28T02:56:37;7.80;96.00
65034;DHT22;51601;51.356;12.458;2022-09-28T03:01:00;7.80;96.00
65034;DHT22;51601;51.356;12.458;2022-09-28T03:05:19;7.70;96.10
65034;DHT22;51601;51.356;12.458;2022-09-28T03:09:38;7.70;96.20
65034;DHT22;51601;51.356;12.458;2022-09-28T03:13:54;7.70;96.30
65034;DHT22;51601;51.356;12.458;2022-09-28T03:18:17;7.60;96.30
65034;DHT22;51601;51.356;12.458;2022-09-28T03:22:31;7.60;96.40
65034;DHT22;51601;51.356;12.458;2022-09-28T03:26:45;7.60;96.40
65034;DHT22;51601;51.356;12.458;2022-09-28T03:31:01;7.60;96.50
65034;DHT22;51601;51.356;12.458;2022-09-28T03:35:15;7.50;96.70
65034;DHT22;51601;51.356;12.458;2022-09-28T03:39:29;7.60;96.80
65034;DHT22;51601;51.356;12.458;2022-09-28T03:43:43;7.60;96.90
65034;DHT22;51601;51.356;12.458;2022-09-28T03:48:00;7.60;96.80
65034;DHT22;51601;51.356;12.458;2022-09-28T03:52:14;7.70;96.80
65034;DHT22;51601;51.356;12.458;2022-09-28T03:56:29;7.70;96.80
65034;DHT22;51601;51.356;12.458;2022-09-28T04:01:04;7.80;97.10
65034;DHT22;51601;51.356;12.458;2022-09-28T04:05:20;7.80;96.60
65034;DHT22;51601;51.356;12.458;2022-09-28T04:09:34;7.90;96.50
65034;DHT22;51601;51.356;12.458;2022-09-28T04:13:48;7.90;96.30
65034;DHT22;51601;51.356;12.458;2022-09-28T04:18:02;7.90;96.30
65034;DHT22;51601;51.356;12.458;2022-09-28T04:22:35;7.90;96.30
65034;DHT22;51601;51.356;12.458;2022-09-28T04:26:49;7.90;96.30
65034;DHT22;51601;51.356;12.458;2022-09-28T04:31:08;7.90;96.20
65034;DHT22;51601;51.356;12.458;2022-09-28T04:35:23;7.90;96.40
65034;DHT22;51601;51.356;12.458;2022-09-28T04:39:38;7.90;96.30
65034;DHT22;51601;51.356;12.458;2022-09-28T04:43:58;7.90;96.20
65034;DHT22;51601;51.356;12.458;2022-09-28T04:48:12;7.90;96.20
65034;DHT22;51601;51.356;12.458;2022-09-28T04:52:46;7.90;96.20
65034;DHT22;51601;51.356;12.458;2022-09-28T04:57:02;7.90;96.30
65034;DHT22;51601;51.356;12.458;2022-09-28T05:01:18;7.90;96.30
65034;DHT22;51601;51.356;12.458;2022-09-28T05:05:44;8.00;96.40
65034;DHT22;51601;51.356;12.458;2022-09-28T05:10:33;8.00;96.40
65034;DHT22;51601;51.356;12.458;2022-09-28T05:14:48;8.10;96.20
65034;DHT22;51601;51.356;12.458;2022-09-28T05:19:02;8.10;96.10
65034;DHT22;51601;51.356;12.458;2022-09-28T05:23:17;8.20;96.10
65034;DHT22;51601;51.356;12.458;2022-09-28T05:27:31;8.30;96.00
65034;DHT22;51601;51.356;12.458;2022-09-28T05:31:53;8.30;95.80
65034;DHT22;51601;51.356;12.458;2022-09-28T05:36:15;8.40;95.70
65034;DHT22;51601;51.356;12.458;2022-09-28T05:40:29;8.40;95.70
65034;DHT22;51601;51.356;12.458;2022-09-28T05:44:43;8.40;95.60
65034;DHT22;51601;51.356;12.458;2022-09-28T05:48:59;8.50;95.70
65034;DHT22;51601;51.356;12.458;2022-09-28T05:53:13;8.50;95.50
65034;DHT22;51601;51.356;12.458;2022-09-28T05:57:27;8.60;95.40
65034;DHT22;51601;51.356;12.458;2022-09-28T06:01:42;8.60;95.40
65034;DHT22;51601;51.356;12.458;2022-09-28T06:05:59;8.70;95.50
65034;DHT22;51601;51.356;12.458;2022-09-28T06:10:14;8.80;95.40
65034;DHT22;51601;51.356;12.458;2022-09-28T06:14:29;8.90;95.40
65034;DHT22;51601;51.356;12.458;2022-09-28T06:18:42;8.90;95.40
65034;DHT22;51601;51.356;12.458;2022-09-28T06:22:57;8.90;95.40
65034;DHT22;51601;51.356;12.458;2022-09-28T06:27:11;8.90;95.90
65034;DHT22;51601;51.356;12.458;2022-09-28T06:31:26;8.90;95.80
65034;DHT22;51601;51.356;12.458;2022-09-28T06:35:41;8.90;96.00
65034;DHT22;51601;51.356;12.458;2022-09-28T06:39:56;8.90;96.50
65034;DHT22;51601;51.356;12.458;2022-09-28T06:44:10;8.80;97.30
65034;DHT22;51601;51.356;12.458;2022-09-28T06:48:43;8.80;97.60
65034;DHT22;51601;51.356;12.458;2022-09-28T06:53:06;8.70;98.20
65034;DHT22;51601;51.356;12.458;2022-09-28T06:57:35;8.70;98.70
65034;DHT22;51601;51.356;12.458;2022-09-28T07:01:49;8.70;99.10
65034;DHT22;51601;51.356;12.458;2022-09-28T07:06:23;8.70;99.50
65034;DHT22;51601;51.356;12.458;2022-09-28T07:11:16;8.70;99.70
65034;DHT22;51601;51.356;12.458;2022-09-28T07:15:53;8.80;99.90
65034;DHT22;51601;51.356;12.458;2022-09-28T07:20:07;8.90;99.90
65034;DHT22;51601;51.356;12.458;2022-09-28T07:24:36;9.00;99.90
65034;DHT22;51601;51.356;12.458;2022-09-28T07:29:08;9.20;99.90
65034;DHT22;51601;51.356;12.458;2022-09-28T07:33:30;9.20;99.90
65034;DHT22;51601;51.356;12.458;2022-09-28T07:38:07;9.30;99.90
65034;DHT22;51601;51.356;12.458;2022-09-28T07:42:21;9.30;99.90
65034;DHT22;51601;51.356;12.458;2022-09-28T07:46:35;9.20;99.90
65034;DHT22;51601;51.356;12.458;2022-09-28T07:50:56;9.20;99.90
65034;DHT22;51601;51.356;12.458;2022-09-28T07:55:26;9.20;99.90
65034;DHT22;51601;51.356;12.458;2022-09-28T07:59:51;9.30;99.90
65034;DHT22;51601;51.356;12.458;2022-09-28T08:04:25;9.30;99.90
65034;DHT22;51601;51.356;12.458;2022-09-28T08:08:42;9.40;99.90
65034;DHT22;51601;51.356;12.458;2022-09-28T08:12:59;9.40;99.90
65034;DHT22;51601;51.356;12.458;2022-09-28T08:17:53;9.60;99.90
65034;DHT22;51601;51.356;12.458;2022-09-28T08:22:14;9.60;99.90
65034;DHT22;51601;51.356;12.458;2022-09-28T08:26:31;9.70;99.90
65034;DHT22;51601;51.356;12.458;2022-09-28T08:30:46;9.70;99.90
65034;DHT22;51601;51.356;12.458;2022-09-28T08:35:23;9.80;99.90
65034;DHT22;51601;51.356;12.458;2022-09-28T08:39:59;9.80;99.90
65034;DHT22;51601;51.356;12.458;2022-09-28T08:44:36;9.70;99.90
65034;DHT22;51601;51.356;12.458;2022-09-28T08:49:21;9.70;99.90
65034;DHT22;51601;51.356;12.458;2022-09-28T08:53:50;9.70;99.90
65034;DHT22;51601;51.356;12.458;2022-09-28T08:58:11;9.60;99.90
65034;DHT22;51601;51.356;12.458;2022-09-28T09:02:31;9.60;99.90
65034;DHT22;51601;51.356;12.458;2022-09-28T09:07:20;9.50;99.90
65034;DHT22;51601;51.356;12.458;2022-09-28T09:11:54;9.40;99.90
65034;DHT22;51601;51.356;12.458;2022-09-28T09:16:20;9.40;99.90
65034;DHT22;51601;51.356;12.458;2022-09-28T09:20:54;9.20;99.90
65034;DHT22;51601;51.356;12.458;2022-09-28T09:25:17;9.10;99.90
65034;DHT22;51601;51.356;12.458;2022-09-28T09:29:46;9.00;99.90
65034;DHT22;51601;51.356;12.458;2022-09-28T09:34:20;9.00;99.90
65034;DHT22;51601;51.356;12.458;2022-09-28T09:39:08;9.20;99.90
65034;DHT22;51601;51.356;12.458;2022-09-28T09:48:39;9.40;99.90
65034;DHT22;51601;51.356;12.458;2022-09-28T09:52:58;9.70;99.90
65034;DHT22;51601;51.356;12.458;2022-09-28T09:57:17;9.90;99.90
65034;DHT22;51601;51.356;12.458;2022-09-28T10:01:44;10.20;99.90
65034;DHT22;51601;51.356;12.458;2022-09-28T10:06:06;10.30;99.90
65034;DHT22;51601;51.356;12.458;2022-09-28T10:10:25;10.50;99.90
65034;DHT22;51601;51.356;12.458;2022-09-28T10:14:52;10.70;99.90
65034;DHT22;51601;51.356;12.458;2022-09-28T10:19:11;10.80;99.90
65034;DHT22;51601;51.356;12.458;2022-09-28T10:23:45;10.80;99.90
65034;DHT22;51601;51.356;12.458;2022-09-28T10:28:02;10.80;99.90
65034;DHT22;51601;51.356;12.458;2022-09-28T10:32:22;10.70;99.80
65034;DHT22;51601;51.356;12.458;2022-09-28T10:36:49;10.70;99.90
65034;DHT22;51601;51.356;12.458;2022-09-28T10:41:09;10.70;99.90
65034;DHT22;51601;51.356;12.458;2022-09-28T10:45:37;10.70;99.80
65034;DHT22;51601;51.356;12.458;2022-09-28T10:49:54;10.70;99.60
65034;DHT22;51601;51.356;12.458;2022-09-28T10:54:14;10.50;99.50
65034;DHT22;51601;51.356;12.458;2022-09-28T10:58:35;10.50;99.80
65034;DHT22;51601;51.356;12.458;2022-09-28T11:02:55;10.50;99.90
65034;DHT22;51601;51.356;12.458;2022-09-28T11:07:16;10.60;99.90
65034;DHT22;51601;51.356;12.458;2022-09-28T11:11:39;10.70;99.90
65034;DHT22;51601;51.356;12.458;2022-09-28T11:15:54;10.60;99.90
65034;DHT22;51601;51.356;12.458;2022-09-28T11:20:29;10.60;99.70
65034;DHT22;51601;51.356;12.458;2022-09-28T11:24:46;10.60;99.90
65034;DHT22;51601;51.356;12.458;2022-09-28T11:29:00;10.60;99.90
65034;DHT22;51601;51.356;12.458;2022-09-28T11:33:39;10.70;99.90
65034;DHT22;51601;51.356;12.458;2022-09-28T11:38:16;10.80;99.90
65034;DHT22;51601;51.356;12.458;2022-09-28T11:43:02;11.00;99.90
65034;DHT22;51601;51.356;12.458;2022-09-28T11:47:31;11.30;99.90
65034;DHT22;51601;51.356;12.458;2022-09-28T11:51:48;11.60;99.90
65034;DHT22;51601;51.356;12.458;2022-09-28T11:56:09;11.80;99.90
65034;DHT22;51601;51.356;12.458;2022-09-28T12:00:32;12.10;99.90
65034;DHT22;51601;51.356;12.458;2022-09-28T12:04:53;12.40;99.90
65034;DHT22;51601;51.356;12.458;2022-09-28T12:09:15;12.70;99.90
65034;DHT22;51601;51.356;12.458;2022-09-28T12:13:45;13.10;99.90
65034;DHT22;51601;51.356;12.458;2022-09-28T12:18:05;13.30;99.90
65034;DHT22;51601;51.356;12.458;2022-09-28T12:22:23;13.40;99.00
65034;DHT22;51601;51.356;12.458;2022-09-28T12:26:43;13.40;98.30
65034;DHT22;51601;51.356;12.458;2022-09-28T12:31:06;13.30;98.20
65034;DHT22;51601;51.356;12.458;2022-09-28T12:35:31;13.50;98.20
65034;DHT22;51601;51.356;12.458;2022-09-28T12:40:01;13.40;98.00
65034;DHT22;51601;51.356;12.458;2022-09-28T12:44:32;13.50;97.70
65034;DHT22;51601;51.356;12.458;2022-09-28T12:54:00;14.00;98.10
65034;DHT22;51601;51.356;12.458;2022-09-28T12:58:28;14.10;96.60
65034;DHT22;51601;51.356;12.458;2022-09-28T13:02:56;14.10;96.20
65034;DHT22;51601;51.356;12.458;2022-09-28T13:07:19;13.90;95.30
65034;DHT22;51601;51.356;12.458;2022-09-28T13:11:45;13.60;94.60
65034;DHT22;51601;51.356;12.458;2022-09-28T13:16:06;13.20;93.90
65034;DHT22;51601;51.356;12.458;2022-09-28T13:20:28;12.70;94.20
65034;DHT22;51601;51.356;12.458;2022-09-28T13:24:44;12.40;95.20
65034;DHT22;51601;51.356;12.458;2022-09-28T13:29:02;12.20;96.20
65034;DHT22;51601;51.356;12.458;2022-09-28T13:33:30;12.40;97.30
65034;DHT22;51601;51.356;12.458;2022-09-28T13:43:04;12.80;97.20
65034;DHT22;51601;51.356;12.458;2022-09-28T13:47:43;13.00;96.80
65034;DHT22;51601;51.356;12.458;2022-09-28T13:52:03;13.00;96.50
65034;DHT22;51601;51.356;12.458;2022-09-28T13:56:27;12.90;96.10
65034;DHT22;51601;51.356;12.458;2022-09-28T14:00:46;12.80;96.40
65034;DHT22;51601;51.356;12.458;2022-09-28T14:05:04;12.80;97.00
65034;DHT22;51601;51.356;12.458;2022-09-28T14:09:43;13.00;97.20
65034;DHT22;51601;51.356;12.458;2022-09-28T14:14:00;13.10;96.90
65034;DHT22;51601;51.356;12.458;2022-09-28T14:18:26;13.20;97.20
65034;DHT22;51601;51.356;12.458;2022-09-28T14:22:53;13.40;97.50
65034;DHT22;51601;51.356;12.458;2022-09-28T14:27:33;13.50;96.70
65034;DHT22;51601;51.356;12.458;2022-09-28T14:31:51;13.30;95.50
65034;DHT22;51601;51.356;12.458;2022-09-28T14:36:18;13.10;94.90
65034;DHT22;51601;51.356;12.458;2022-09-28T14:41:01;12.70;94.30
65034;DHT22;51601;51.356;12.458;2022-09-28T14:45:35;12.50;94.40
65034;DHT22;51601;51.356;12.458;2022-09-28T14:49:58;12.30;94.60
65034;DHT22;51601;51.356;12.458;2022-09-28T14:54:16;12.10;95.00
65034;DHT22;51601;51.356;12.458;2022-09-28T14:58:35;12.10;95.50
65034;DHT22;51601;51.356;12.458;2022-09-28T15:02:51;11.90;95.70
65034;DHT22;51601;51.356;12.458;2022-09-28T15:07:17;11.90;95.90
65034;DHT22;51601;51.356;12.458;2022-09-28T15:11:31;11.90;96.00
65034;DHT22;51601;51.356;12.458;2022-09-28T15:15:48;11.80;95.90
65034;DHT22;51601;51.356;12.458;2022-09-28T15:20:21;11.80;96.00
65034;DHT22;51601;51.356;12.458;2022-09-28T15:24:36;11.70;96.20
65034;DHT22;51601;51.356;12.458;2022-09-28T15:28:51;11.80;96.70
65034;DHT22;51601;51.356;12.458;2022-09-28T15:33:23;11.90;96.90
65034;DHT22;51601;51.356;12.458;2022-09-28T15:37:55;11.90;96.60
65034;DHT22;51601;51.356;12.458;2022-09-28T15:42:08;11.80;96.30
65034;DHT22;51601;51.356;12.458;2022-09-28T15:46:22;11.70;96.30
65034;DHT22;51601;51.356;12.458;2022-09-28T15:50:38;11.60;96.60
65034;DHT22;51601;51.356;12.458;2022-09-28T15:54:57;11.60;97.10
65034;DHT22;51601;51.356;12.458;2022-09-28T15:59:18;11.70;97.50
65034;DHT22;51601;51.356;12.458;2022-09-28T16:03:35;11.80;97.40
65034;DHT22;51601;51.356;12.458;2022-09-28T16:07:53;11.80;97.10
65034;DHT22;51601;51.356;12.458;2022-09-28T16:12:09;11.70;96.90
65034;DHT22;51601;51.356;12.458;2022-09-28T16:16:27;11.50;96.60
65034;DHT22;51601;51.356;12.458;2022-09-28T16:20:41;11.40;96.60
65034;DHT22;51601;51.356;12.458;2022-09-28T16:24:58;11.20;96.60
65034;DHT22;51601;51.356;12.458;2022-09-28T16:29:23;11.00;96.80
65034;DHT22;51601;51.356;12.458;2022-09-28T16:33:39;10.90;97.00
65034;DHT22;51601;51.356;12.458;2022-09-28T16:38:07;10.80;97.10
65034;DHT22;51601;51.356;12.458;2022-09-28T16:42:23;10.70;97.20
65034;DHT22;51601;51.356;12.458;2022-09-28T16:46:39;10.60;97.20
65034;DHT22;51601;51.356;12.458;2022-09-28T16:50:53;10.50;97.40
65034;DHT22;51601;51.356;12.458;2022-09-28T16:55:09;10.40;97.70
65034;DHT22;51601;51.356;12.458;2022-09-28T16:59:51;10.40;98.00
65034;DHT22;51601;51.356;12.458;2022-09-28T17:04:04;10.40;98.20
65034;DHT22;51601;51.356;12.458;2022-09-28T17:08:20;10.40;98.20
65034;DHT22;51601;51.356;12.458;2022-09-28T17:12:35;10.40;98.10
65034;DHT22;51601;51.356;12.458;2022-09-28T17:16:51;10.30;98.10
65034;DHT22;51601;51.356;12.458;2022-09-28T17:21:26;10.20;98.30
65034;DHT22;51601;51.356;12.458;2022-09-28T17:25:40;10.30;98.80
65034;DHT22;51601;51.356;12.458;2022-09-28T17:29:54;10.40;99.20
65034;DHT22;51601;51.356;12.458;2022-09-28T17:34:10;10.50;99.10
65034;DHT22;51601;51.356;12.458;2022-09-28T17:38:24;10.50;98.70
65034;DHT22;51601;51.356;12.458;2022-09-28T17:42:38;10.40;98.50
65034;DHT22;51601;51.356;12.458;2022-09-28T17:46:52;10.30;98.70
65034;DHT22;51601;51.356;12.458;2022-09-28T17:51:08;10.20;98.90
65034;DHT22;51601;51.356;12.458;2022-09-28T17:55:23;10.20;99.00
65034;DHT22;51601;51.356;12.458;2022-09-28T17:59:40;10.00;98.90
65034;DHT22;51601;51.356;12.458;2022-09-28T18:03:53;9.90;98.90
65034;DHT22;51601;51.356;12.458;2022-09-28T18:08:11;9.80;99.00
65034;DHT22;51601;51.356;12.458;2022-09-28T18:12:25;9.70;99.20
65034;DHT22;51601;51.356;12.458;2022-09-28T18:16:39;9.60;99.30
65034;DHT22;51601;51.356;12.458;2022-09-28T18:20:52;9.60;99.40
65034;DHT22;51601;51.356;12.458;2022-09-28T18:25:08;9.50;99.50
65034;DHT22;51601;51.356;12.458;2022-09-28T18:29:22;9.50;99.50
65034;DHT22;51601;51.356;12.458;2022-09-28T18:33:36;9.40;99.70
65034;DHT22;51601;51.356;12.458;2022-09-28T18:37:50;9.50;99.80
65034;DHT22;51601;51.356;12.458;2022-09-28T18:42:05;9.50;99.80
65034;DHT22;51601;51.356;12.458;2022-09-28T18:46:19;9.40;99.60
65034;DHT22;51601;51.356;12.458;2022-09-28T18:50:33;9.40;99.40
65034;DHT22;51601;51.356;12.458;2022-09-28T18:54:47;9.30;99.30
65034;DHT22;51601;51.356;12.458;2022-09-28T18:59:04;9.20;99.10
65034;DHT22;51601;51.356;12.458;2022-09-28T19:03:23;9.20;99.10
65034;DHT22;51601;51.356;12.458;2022-09-28T19:07:37;9.10;99.30
65034;DHT22;51601;51.356;12.458;2022-09-28T19:11:51;9.00;99.40
65034;DHT22;51601;51.356;12.458;2022-09-28T19:16:08;9.00;99.20
65034;DHT22;51601;51.356;12.458;2022-09-28T19:20:23;8.90;99.10
65034;DHT22;51601;51.356;12.458;2022-09-28T19:24:37;8.90;99.10
65034;DHT22;51601;51.356;12.458;2022-09-28T19:28:50;8.70;99.10
65034;DHT22;51601;51.356;12.458;2022-09-28T19:33:06;8.70;99.10
65034;DHT22;51601;51.356;12.458;2022-09-28T19:37:21;8.60;99.10
65034;DHT22;51601;51.356;12.458;2022-09-28T19:41:35;8.50;99.10
65034;DHT22;51601;51.356;12.458;2022-09-28T19:46:02;8.50;99.10
65034;DHT22;51601;51.356;12.458;2022-09-28T19:50:19;8.40;99.10
65034;DHT22;51601;51.356;12.458;2022-09-28T19:54:33;8.30;99.10
65034;DHT22;51601;51.356;12.458;2022-09-28T19:58:48;8.20;99.10
65034;DHT22;51601;51.356;12.458;2022-09-28T20:03:02;8.20;99.20
65034;DHT22;51601;51.356;12.458;2022-09-28T20:07:17;8.20;99.30
65034;DHT22;51601;51.356;12.458;2022-09-28T20:11:32;8.20;99.50
65034;DHT22;51601;51.356;12.458;2022-09-28T20:15:47;8.20;99.80
65034;DHT22;51601;51.356;12.458;2022-09-28T20:20:01;8.30;99.80
65034;DHT22;51601;51.356;12.458;2022-09-28T20:24:16;8.30;99.70
65034;DHT22;51601;51.356;12.458;2022-09-28T20:28:30;8.30;99.80
65034;DHT22;51601;51.356;12.458;2022-09-28T20:32:44;8.30;99.80
65034;DHT22;51601;51.356;12.458;2022-09-28T20:37:01;8.30;99.90
65034;DHT22;51601;51.356;12.458;2022-09-28T20:41:18;8.30;99.80
65034;DHT22;51601;51.356;12.458;2022-09-28T20:45:34;8.40;99.70
65034;DHT22;51601;51.356;12.458;2022-09-28T20:49:48;8.30;99.60
65034;DHT22;51601;51.356;12.458;2022-09-28T20:54:02;8.30;99.40
65034;DHT22;51601;51.356;12.458;2022-09-28T20:58:17;8.20;99.30
65034;DHT22;51601;51.356;12.458;2022-09-28T21:02:34;8.10;99.20
65034;DHT22;51601;51.356;12.458;2022-09-28T21:06:48;8.00;99.10
65034;DHT22;51601;51.356;12.458;2022-09-28T21:11:01;8.00;99.10
65034;DHT22;51601;51.356;12.458;2022-09-28T21:15:17;7.90;99.10
65034;DHT22;51601;51.356;12.458;2022-09-28T21:19:31;7.80;99.10
65034;DHT22;51601;51.356;12.458;2022-09-28T21:23:45;7.80;99.10
65034;DHT22;51601;51.356;12.458;2022-09-28T21:27:59;7.80;99.20
65034;DHT22;51601;51.356;12.458;2022-09-28T21:32:14;7.70;99.20
65034;DHT22;51601;51.356;12.458;2022-09-28T21:36:28;7.70;99.10
65034;DHT22;51601;51.356;12.458;2022-09-28T21:40:42;7.70;99.40
65034;DHT22;51601;51.356;12.458;2022-09-28T21:44:56;7.60;99.10
65034;DHT22;51601;51.356;12.458;2022-09-28T21:49:12;7.60;99.30
65034;DHT22;51601;51.356;12.458;2022-09-28T21:53:28;7.50;99.00
65034;DHT22;51601;51.356;12.458;2022-09-28T21:57:44;7.40;99.00
65034;DHT22;51601;51.356;12.458;2022-09-28T22:01:59;7.40;99.00
65034;DHT22;51601;51.356;12.458;2022-09-28T22:06:15;7.40;99.00
65034;DHT22;51601;51.356;12.458;2022-09-28T22:10:29;7.30;99.00
65034;DHT22;51601;51.356;12.458;2022-09-28T22:14:43;7.30;99.10
65034;DHT22;51601;51.356;12.458;2022-09-28T22:18:58;7.20;99.10
65034;DHT22;51601;51.356;12.458;2022-09-28T22:23:13;7.20;99.20
65034;DHT22;51601;51.356;12.458;2022-09-28T22:27:28;7.20;99.30
65034;DHT22;51601;51.356;12.458;2022-09-28T22:31:44;7.30;99.30
65034;DHT22;51601;51.356;12.458;2022-09-28T22:35:58;7.30;99.40
65034;DHT22;51601;51.356;12.458;2022-09-28T22:40:13;7.30;99.60
65034;DHT22;51601;51.356;12.458;2022-09-28T22:44:27;7.40;99.80
65034;DHT22;51601;51.356;12.458;2022-09-28T22:48:45;7.50;99.90
65034;DHT22;51601;51.356;12.458;2022-09-28T22:52:59;7.60;99.90
65034;DHT22;51601;51.356;12.458;2022-09-28T22:57:14;7.70;99.90
65034;DHT22;51601;51.356;12.458;2022-09-28T23:01:29;7.80;99.90
65034;DHT22;51601;51.356;12.458;2022-09-28T23:05:51;8.00;99.90
65034;DHT22;51601;51.356;12.458;2022-09-28T23:10:05;8.10;99.90
65034;DHT22;51601;51.356;12.458;2022-09-28T23:14:21;8.20;99.90
65034;DHT22;51601;51.356;12.458;2022-09-28T23:18:36;8.20;99.90
65034;DHT22;51601;51.356;12.458;2022-09-28T23:22:52;8.30;99.90
65034;DHT22;51601;51.356;12.458;2022-09-28T23:27:05;8.30;99.90
65034;DHT22;51601;51.356;12.458;2022-09-28T23:31:22;8.40;99.90
65034;DHT22;51601;51.356;12.458;2022-09-28T23:35:36;8.40;99.90
65034;DHT22;51601;51.356;12.458;2022-09-28T23:39:50;8.40;99.90
65034;DHT22;51601;51.356;12.458;2022-09-28T23:44:03;8.50;99.90
65034;DHT22;51601;51.356;12.458;2022-09-28T23:48:19;8.50;99.90
65034;DHT22;51601;51.356;12.458;2022-09-28T23:52:32;8.50;99.90
65034;DHT22;51601;51.356;12.458;2022-09-28T23:56:46;8.50;99.90
